sensor_id;sensor_type;location;lat;lon;timestamp;temperature;humidity
11736;DHT22;5924;51.398;7.088;2022-12-18T00:01:36;-7.60;99.90
11736;DHT22;5924;51.398;7.088;2022-12-18T00:04:04;-7.60;99.90
11736;DHT22;5924;51.398;7.088;2022-12-18T00:06:32;-7.50;99.90
11736;DHT22;5924;51.398;7.088;2022-12-18T00:08:58;-7.30;99.90
11736;DHT22;5924;51.398;7.088;2022-12-18T00:11:29;-7.30;99.90
11736;DHT22;5924;51.398;7.088;2022-12-18T00:13:57;-7.20;99.90
11736;DHT22;5924;51.398;7.088;2022-12-18T00:16:25;-7.10;99.90
11736;DHT22;5924;51.398;7.088;2022-12-18T00:18:53;-6.70;99.90
11736;DHT22;5924;51.398;7.088;2022-12-18T00:21:19;-6.50;99.90
11736;DHT22;5924;51.398;7.088;2022-12-18T00:23:46;-6.20;99.90
11736;DHT22;5924;51.398;7.088;2022-12-18T00:26:21;-6.00;99.90
11736;DHT22;5924;51.398;7.088;2022-12-18T00:28:47;-5.90;99.90
11736;DHT22;5924;51.398;7.088;2022-12-18T00:31:16;-5.90;99.90
11736;DHT22;5924;51.398;7.088;2022-12-18T00:33:42;-5.70;99.90
11736;DHT22;5924;51.398;7.088;2022-12-18T00:36:14;-5.60;99.90
11736;DHT22;5924;51.398;7.088;2022-12-18T00:38:40;-5.40;99.90
11736;DHT22;5924;51.398;7.088;2022-12-18T00:41:06;-5.40;99.90
11736;DHT22;5924;51.398;7.088;2022-12-18T00:43:32;-5.30;99.90
11736;DHT22;5924;51.398;7.088;2022-12-18T00:45:58;-2.80;99.90
11736;DHT22;5924;51.398;7.088;2022-12-18T00:48:23;-4.40;99.90
11736;DHT22;5924;51.398;7.088;2022-12-18T00:50:50;-5.50;99.90
11736;DHT22;5924;51.398;7.088;2022-12-18T00:53:16;-5.40;99.90
11736;DHT22;5924;51.398;7.088;2022-12-18T00:55:42;-5.10;99.90
11736;DHT22;5924;51.398;7.088;2022-12-18T00:58:09;-5.00;99.90
11736;DHT22;5924;51.398;7.088;2022-12-18T01:00:36;-4.90;99.90
11736;DHT22;5924;51.398;7.088;2022-12-18T01:03:02;-4.70;99.90
11736;DHT22;5924;51.398;7.088;2022-12-18T01:05:28;-4.60;99.90
11736;DHT22;5924;51.398;7.088;2022-12-18T01:07:54;-4.60;99.90
11736;DHT22;5924;51.398;7.088;2022-12-18T01:10:20;-4.50;99.90
11736;DHT22;5924;51.398;7.088;2022-12-18T01:12:46;-4.50;99.90
11736;DHT22;5924;51.398;7.088;2022-12-18T01:15:12;-4.50;99.90
11736;DHT22;5924;51.398;7.088;2022-12-18T01:17:38;-4.50;99.90
11736;DHT22;5924;51.398;7.088;2022-12-18T01:20:05;-4.50;99.90
11736;DHT22;5924;51.398;7.088;2022-12-18T01:22:35;-4.50;99.90
11736;DHT22;5924;51.398;7.088;2022-12-18T01:25:01;-3.70;99.90
11736;DHT22;5924;51.398;7.088;2022-12-18T01:27:27;-4.60;99.90
11736;DHT22;5924;51.398;7.088;2022-12-18T01:29:52;-4.50;99.90
11736;DHT22;5924;51.398;7.088;2022-12-18T01:32:18;-4.40;99.90
11736;DHT22;5924;51.398;7.088;2022-12-18T01:34:43;-4.50;99.90
11736;DHT22;5924;51.398;7.088;2022-12-18T01:37:09;-4.50;99.90
11736;DHT22;5924;51.398;7.088;2022-12-18T01:39:36;-4.40;99.90
11736;DHT22;5924;51.398;7.088;2022-12-18T01:42:12;-4.30;99.90
11736;DHT22;5924;51.398;7.088;2022-12-18T01:50:38;-3.90;99.90
11736;DHT22;5924;51.398;7.088;2022-12-18T01:53:22;-3.90;99.90
11736;DHT22;5924;51.398;7.088;2022-12-18T01:55:55;-3.80;99.90
11736;DHT22;5924;51.398;7.088;2022-12-18T02:01:09;-3.70;99.90
11736;DHT22;5924;51.398;7.088;2022-12-18T02:03:35;-3.70;99.90
11736;DHT22;5924;51.398;7.088;2022-12-18T02:06:12;-3.70;99.90
11736;DHT22;5924;51.398;7.088;2022-12-18T02:14:28;-3.80;99.90
11736;DHT22;5924;51.398;7.088;2022-12-18T02:22:34;-3.60;99.90
11736;DHT22;5924;51.398;7.088;2022-12-18T02:27:39;-2.20;99.90
11736;DHT22;5924;51.398;7.088;2022-12-18T02:30:07;-3.60;99.90
11736;DHT22;5924;51.398;7.088;2022-12-18T02:32:46;-3.60;99.90
11736;DHT22;5924;51.398;7.088;2022-12-18T02:35:16;-3.70;99.90
11736;DHT22;5924;51.398;7.088;2022-12-18T02:37:45;-3.80;99.90
11736;DHT22;5924;51.398;7.088;2022-12-18T02:40:13;-3.80;99.90
11736;DHT22;5924;51.398;7.088;2022-12-18T02:42:40;-3.80;99.90
11736;DHT22;5924;51.398;7.088;2022-12-18T02:45:07;-3.80;99.90
11736;DHT22;5924;51.398;7.088;2022-12-18T02:47:38;-3.70;99.90
11736;DHT22;5924;51.398;7.088;2022-12-18T02:50:13;-3.60;99.90
11736;DHT22;5924;51.398;7.088;2022-12-18T02:57:44;-3.50;99.90
11736;DHT22;5924;51.398;7.088;2022-12-18T03:05:25;-3.50;99.90
11736;DHT22;5924;51.398;7.088;2022-12-18T03:08:23;-1.40;99.90
11736;DHT22;5924;51.398;7.088;2022-12-18T03:11:03;-3.50;99.90
11736;DHT22;5924;51.398;7.088;2022-12-18T03:13:36;-3.50;99.90
11736;DHT22;5924;51.398;7.088;2022-12-18T03:16:05;-3.50;99.90
11736;DHT22;5924;51.398;7.088;2022-12-18T03:19:01;-3.50;99.90
11736;DHT22;5924;51.398;7.088;2022-12-18T03:21:33;-2.30;99.90
11736;DHT22;5924;51.398;7.088;2022-12-18T03:24:00;-3.70;99.90
11736;DHT22;5924;51.398;7.088;2022-12-18T03:26:29;-3.80;99.90
11736;DHT22;5924;51.398;7.088;2022-12-18T03:29:06;-3.90;99.90
11736;DHT22;5924;51.398;7.088;2022-12-18T03:31:33;-3.80;99.90
11736;DHT22;5924;51.398;7.088;2022-12-18T03:34:09;-3.90;99.90
11736;DHT22;5924;51.398;7.088;2022-12-18T03:36:38;-1.30;99.90
11736;DHT22;5924;51.398;7.088;2022-12-18T03:39:06;-3.90;99.90
11736;DHT22;5924;51.398;7.088;2022-12-18T03:41:37;-4.00;99.90
11736;DHT22;5924;51.398;7.088;2022-12-18T03:44:13;-4.00;99.90
11736;DHT22;5924;51.398;7.088;2022-12-18T03:54:28;-3.90;99.90
11736;DHT22;5924;51.398;7.088;2022-12-18T03:56:59;-3.80;99.90
11736;DHT22;5924;51.398;7.088;2022-12-18T03:59:27;-3.80;99.90
11736;DHT22;5924;51.398;7.088;2022-12-18T04:01:55;-3.80;99.90
11736;DHT22;5924;51.398;7.088;2022-12-18T04:04:24;-3.80;99.90
11736;DHT22;5924;51.398;7.088;2022-12-18T04:06:50;-3.80;99.90
11736;DHT22;5924;51.398;7.088;2022-12-18T04:09:16;-3.80;99.90
11736;DHT22;5924;51.398;7.088;2022-12-18T04:11:42;-3.80;99.90
11736;DHT22;5924;51.398;7.088;2022-12-18T04:14:11;-3.70;99.90
11736;DHT22;5924;51.398;7.088;2022-12-18T04:16:36;-3.70;99.90
11736;DHT22;5924;51.398;7.088;2022-12-18T04:19:02;-3.70;99.90
11736;DHT22;5924;51.398;7.088;2022-12-18T04:21:28;-3.70;99.90
11736;DHT22;5924;51.398;7.088;2022-12-18T04:23:54;-3.80;99.90
11736;DHT22;5924;51.398;7.088;2022-12-18T04:26:19;-3.80;99.90
11736;DHT22;5924;51.398;7.088;2022-12-18T04:28:45;-0.80;99.90
11736;DHT22;5924;51.398;7.088;2022-12-18T04:31:11;-3.90;99.90
11736;DHT22;5924;51.398;7.088;2022-12-18T04:33:36;-3.90;99.90
11736;DHT22;5924;51.398;7.088;2022-12-18T04:36:02;-3.90;99.90
11736;DHT22;5924;51.398;7.088;2022-12-18T04:38:28;-3.90;99.90
11736;DHT22;5924;51.398;7.088;2022-12-18T04:40:53;-3.90;99.90
11736;DHT22;5924;51.398;7.088;2022-12-18T04:43:19;-3.90;99.90
11736;DHT22;5924;51.398;7.088;2022-12-18T04:45:45;-3.80;99.90
11736;DHT22;5924;51.398;7.088;2022-12-18T04:48:10;-3.80;99.90
11736;DHT22;5924;51.398;7.088;2022-12-18T04:50:36;-3.80;99.90
11736;DHT22;5924;51.398;7.088;2022-12-18T04:53:01;-3.80;99.90
11736;DHT22;5924;51.398;7.088;2022-12-18T04:55:27;-3.80;99.90
11736;DHT22;5924;51.398;7.088;2022-12-18T04:57:53;-3.70;99.90
11736;DHT22;5924;51.398;7.088;2022-12-18T05:00:19;-3.70;99.90
11736;DHT22;5924;51.398;7.088;2022-12-18T05:02:45;-3.80;99.90
11736;DHT22;5924;51.398;7.088;2022-12-18T05:05:10;-3.70;99.90
11736;DHT22;5924;51.398;7.088;2022-12-18T05:07:36;-3.70;99.90
11736;DHT22;5924;51.398;7.088;2022-12-18T05:10:02;-3.70;99.90
11736;DHT22;5924;51.398;7.088;2022-12-18T05:12:28;-3.70;99.90
11736;DHT22;5924;51.398;7.088;2022-12-18T05:14:54;-3.70;99.90
11736;DHT22;5924;51.398;7.088;2022-12-18T05:17:19;-3.70;99.90
11736;DHT22;5924;51.398;7.088;2022-12-18T05:19:45;-3.70;99.90
11736;DHT22;5924;51.398;7.088;2022-12-18T05:22:11;-3.70;99.90
11736;DHT22;5924;51.398;7.088;2022-12-18T05:24:37;-3.60;99.90
11736;DHT22;5924;51.398;7.088;2022-12-18T05:27:02;-3.60;99.90
11736;DHT22;5924;51.398;7.088;2022-12-18T05:29:28;-3.60;99.90
11736;DHT22;5924;51.398;7.088;2022-12-18T05:31:54;-3.60;99.90
11736;DHT22;5924;51.398;7.088;2022-12-18T05:34:19;-3.60;99.90
11736;DHT22;5924;51.398;7.088;2022-12-18T05:36:45;-3.40;99.90
11736;DHT22;5924;51.398;7.088;2022-12-18T05:39:11;-3.60;99.90
11736;DHT22;5924;51.398;7.088;2022-12-18T05:41:36;-3.60;99.90
11736;DHT22;5924;51.398;7.088;2022-12-18T05:44:02;-3.50;99.90
11736;DHT22;5924;51.398;7.088;2022-12-18T05:46:27;-3.30;99.90
11736;DHT22;5924;51.398;7.088;2022-12-18T05:48:53;-3.40;99.90
11736;DHT22;5924;51.398;7.088;2022-12-18T05:51:21;-3.40;99.90
11736;DHT22;5924;51.398;7.088;2022-12-18T05:53:47;-3.20;99.90
11736;DHT22;5924;51.398;7.088;2022-12-18T05:56:17;-3.20;99.90
11736;DHT22;5924;51.398;7.088;2022-12-18T05:58:42;-3.20;99.90
11736;DHT22;5924;51.398;7.088;2022-12-18T06:01:11;-3.10;99.90
11736;DHT22;5924;51.398;7.088;2022-12-18T06:03:37;-3.10;99.90
11736;DHT22;5924;51.398;7.088;2022-12-18T06:06:03;-3.20;99.90
11736;DHT22;5924;51.398;7.088;2022-12-18T06:08:29;-3.30;99.90
11736;DHT22;5924;51.398;7.088;2022-12-18T06:10:55;-3.30;99.90
11736;DHT22;5924;51.398;7.088;2022-12-18T06:13:21;-3.30;99.90
11736;DHT22;5924;51.398;7.088;2022-12-18T06:15:46;-3.30;99.90
11736;DHT22;5924;51.398;7.088;2022-12-18T06:18:12;-3.30;99.90
11736;DHT22;5924;51.398;7.088;2022-12-18T06:20:38;-3.20;99.90
11736;DHT22;5924;51.398;7.088;2022-12-18T06:23:05;-3.20;99.90
11736;DHT22;5924;51.398;7.088;2022-12-18T06:25:31;-3.30;99.90
11736;DHT22;5924;51.398;7.088;2022-12-18T06:27:58;-3.30;99.90
11736;DHT22;5924;51.398;7.088;2022-12-18T06:30:24;-3.30;99.90
11736;DHT22;5924;51.398;7.088;2022-12-18T06:32:50;-3.30;99.90
11736;DHT22;5924;51.398;7.088;2022-12-18T06:35:15;-3.20;99.90
11736;DHT22;5924;51.398;7.088;2022-12-18T06:37:41;-3.20;99.90
11736;DHT22;5924;51.398;7.088;2022-12-18T06:40:08;-3.30;99.90
11736;DHT22;5924;51.398;7.088;2022-12-18T06:42:33;-3.40;99.90
11736;DHT22;5924;51.398;7.088;2022-12-18T06:44:59;-3.40;99.90
11736;DHT22;5924;51.398;7.088;2022-12-18T06:47:25;-3.50;99.90
11736;DHT22;5924;51.398;7.088;2022-12-18T06:49:50;-3.50;99.90
11736;DHT22;5924;51.398;7.088;2022-12-18T06:52:16;-3.60;99.90
11736;DHT22;5924;51.398;7.088;2022-12-18T06:54:41;-3.60;99.90
11736;DHT22;5924;51.398;7.088;2022-12-18T06:57:07;-3.40;99.90
11736;DHT22;5924;51.398;7.088;2022-12-18T06:59:33;-3.70;99.90
11736;DHT22;5924;51.398;7.088;2022-12-18T07:01:58;-3.60;99.90
11736;DHT22;5924;51.398;7.088;2022-12-18T07:04:28;-3.60;99.90
11736;DHT22;5924;51.398;7.088;2022-12-18T07:06:54;-3.50;99.90
11736;DHT22;5924;51.398;7.088;2022-12-18T07:09:20;-3.50;99.90
11736;DHT22;5924;51.398;7.088;2022-12-18T07:11:45;-3.40;99.90
11736;DHT22;5924;51.398;7.088;2022-12-18T07:14:11;-3.40;99.90
11736;DHT22;5924;51.398;7.088;2022-12-18T07:16:37;-3.30;99.90
11736;DHT22;5924;51.398;7.088;2022-12-18T07:19:02;-3.30;99.90
11736;DHT22;5924;51.398;7.088;2022-12-18T07:21:28;-3.30;99.90
11736;DHT22;5924;51.398;7.088;2022-12-18T07:23:54;-3.30;99.90
11736;DHT22;5924;51.398;7.088;2022-12-18T07:26:21;-3.40;99.90
11736;DHT22;5924;51.398;7.088;2022-12-18T07:28:47;-3.40;99.90
11736;DHT22;5924;51.398;7.088;2022-12-18T07:31:19;-3.40;99.90
11736;DHT22;5924;51.398;7.088;2022-12-18T07:33:45;-3.30;99.90
11736;DHT22;5924;51.398;7.088;2022-12-18T07:36:12;-3.20;99.90
11736;DHT22;5924;51.398;7.088;2022-12-18T07:38:38;-3.00;99.90
11736;DHT22;5924;51.398;7.088;2022-12-18T07:41:12;-1.10;99.90
11736;DHT22;5924;51.398;7.088;2022-12-18T07:43:39;-3.30;99.90
11736;DHT22;5924;51.398;7.088;2022-12-18T07:46:05;-3.00;99.90
11736;DHT22;5924;51.398;7.088;2022-12-18T07:48:31;-2.90;99.90
11736;DHT22;5924;51.398;7.088;2022-12-18T07:51:05;-2.90;99.90
11736;DHT22;5924;51.398;7.088;2022-12-18T07:53:32;-2.90;99.90
11736;DHT22;5924;51.398;7.088;2022-12-18T07:56:00;-2.80;99.90
11736;DHT22;5924;51.398;7.088;2022-12-18T07:58:26;-4.10;99.90
11736;DHT22;5924;51.398;7.088;2022-12-18T08:00:52;-4.10;99.90
11736;DHT22;5924;51.398;7.088;2022-12-18T08:03:18;-2.70;99.90
11736;DHT22;5924;51.398;7.088;2022-12-18T08:05:44;-2.70;99.90
11736;DHT22;5924;51.398;7.088;2022-12-18T08:08:10;-2.70;99.90
11736;DHT22;5924;51.398;7.088;2022-12-18T08:10:36;-2.70;99.90
11736;DHT22;5924;51.398;7.088;2022-12-18T08:13:02;-2.60;99.90
11736;DHT22;5924;51.398;7.088;2022-12-18T08:15:28;-2.70;99.90
11736;DHT22;5924;51.398;7.088;2022-12-18T08:17:56;-2.50;99.90
11736;DHT22;5924;51.398;7.088;2022-12-18T08:20:22;-2.40;99.90
11736;DHT22;5924;51.398;7.088;2022-12-18T08:22:48;-2.30;99.90
11736;DHT22;5924;51.398;7.088;2022-12-18T08:25:13;-2.30;99.90
11736;DHT22;5924;51.398;7.088;2022-12-18T08:27:39;-2.20;99.90
11736;DHT22;5924;51.398;7.088;2022-12-18T08:30:05;-2.10;99.90
11736;DHT22;5924;51.398;7.088;2022-12-18T08:32:31;-1.90;99.90
11736;DHT22;5924;51.398;7.088;2022-12-18T08:34:58;-1.70;99.90
11736;DHT22;5924;51.398;7.088;2022-12-18T08:37:24;-1.60;99.90
11736;DHT22;5924;51.398;7.088;2022-12-18T08:39:50;-1.50;99.90
11736;DHT22;5924;51.398;7.088;2022-12-18T08:42:16;-1.40;99.90
11736;DHT22;5924;51.398;7.088;2022-12-18T08:45:00;-1.20;99.90
11736;DHT22;5924;51.398;7.088;2022-12-18T08:47:26;-1.10;99.90
11736;DHT22;5924;51.398;7.088;2022-12-18T08:49:51;-1.00;99.90
11736;DHT22;5924;51.398;7.088;2022-12-18T08:52:17;-0.80;99.90
11736;DHT22;5924;51.398;7.088;2022-12-18T08:54:43;-0.70;99.90
11736;DHT22;5924;51.398;7.088;2022-12-18T08:57:09;-0.70;99.90
11736;DHT22;5924;51.398;7.088;2022-12-18T08:59:34;-0.60;99.90
11736;DHT22;5924;51.398;7.088;2022-12-18T09:02:00;-0.60;99.90
11736;DHT22;5924;51.398;7.088;2022-12-18T09:04:26;-0.50;99.90
11736;DHT22;5924;51.398;7.088;2022-12-18T09:06:54;-0.50;99.90
11736;DHT22;5924;51.398;7.088;2022-12-18T09:09:20;-0.40;99.90
11736;DHT22;5924;51.398;7.088;2022-12-18T09:11:46;-0.30;99.90
11736;DHT22;5924;51.398;7.088;2022-12-18T09:14:12;-0.20;99.90
11736;DHT22;5924;51.398;7.088;2022-12-18T09:16:37;-0.20;99.90
11736;DHT22;5924;51.398;7.088;2022-12-18T09:19:04;-0.10;99.90
11736;DHT22;5924;51.398;7.088;2022-12-18T09:21:33;-0.10;99.90
11736;DHT22;5924;51.398;7.088;2022-12-18T09:23:59;2.10;99.90
11736;DHT22;5924;51.398;7.088;2022-12-18T09:26:25;0.00;99.90
11736;DHT22;5924;51.398;7.088;2022-12-18T09:28:51;0.10;99.90
11736;DHT22;5924;51.398;7.088;2022-12-18T09:31:19;0.10;99.90
11736;DHT22;5924;51.398;7.088;2022-12-18T09:33:44;0.20;99.90
11736;DHT22;5924;51.398;7.088;2022-12-18T09:36:15;0.20;99.90
11736;DHT22;5924;51.398;7.088;2022-12-18T09:38:41;-2.10;99.90
11736;DHT22;5924;51.398;7.088;2022-12-18T09:43:54;0.40;99.90
11736;DHT22;5924;51.398;7.088;2022-12-18T09:46:32;0.50;99.90
11736;DHT22;5924;51.398;7.088;2022-12-18T09:49:02;0.60;99.90
11736;DHT22;5924;51.398;7.088;2022-12-18T09:51:49;0.70;99.90
11736;DHT22;5924;51.398;7.088;2022-12-18T09:54:26;0.80;99.90
11736;DHT22;5924;51.398;7.088;2022-12-18T09:56:55;0.80;99.90
11736;DHT22;5924;51.398;7.088;2022-12-18T09:59:30;0.90;99.90
11736;DHT22;5924;51.398;7.088;2022-12-18T10:01:57;1.00;99.90
11736;DHT22;5924;51.398;7.088;2022-12-18T10:04:24;1.10;99.90
11736;DHT22;5924;51.398;7.088;2022-12-18T10:09:54;1.20;99.90
11736;DHT22;5924;51.398;7.088;2022-12-18T10:12:32;1.30;99.90
11736;DHT22;5924;51.398;7.088;2022-12-18T10:28:15;1.80;99.90
11736;DHT22;5924;51.398;7.088;2022-12-18T10:30:42;1.90;99.90
11736;DHT22;5924;51.398;7.088;2022-12-18T10:33:20;1.90;99.90
11736;DHT22;5924;51.398;7.088;2022-12-18T10:35:50;2.00;99.90
11736;DHT22;5924;51.398;7.088;2022-12-18T10:40:55;2.20;99.90
11736;DHT22;5924;51.398;7.088;2022-12-18T10:46:00;2.30;99.90
11736;DHT22;5924;51.398;7.088;2022-12-18T10:48:27;2.40;99.90
11736;DHT22;5924;51.398;7.088;2022-12-18T10:50:53;2.50;99.90
11736;DHT22;5924;51.398;7.088;2022-12-18T10:53:30;2.50;99.90
11736;DHT22;5924;51.398;7.088;2022-12-18T10:56:02;2.60;99.90
11736;DHT22;5924;51.398;7.088;2022-12-18T10:58:36;2.70;99.90
11736;DHT22;5924;51.398;7.088;2022-12-18T11:06:15;2.90;99.90
11736;DHT22;5924;51.398;7.088;2022-12-18T11:08:43;2.90;99.90
11736;DHT22;5924;51.398;7.088;2022-12-18T11:11:22;2.90;99.90
11736;DHT22;5924;51.398;7.088;2022-12-18T11:16:25;2.90;99.90
11736;DHT22;5924;51.398;7.088;2022-12-18T11:18:51;2.90;99.90
11736;DHT22;5924;51.398;7.088;2022-12-18T11:21:17;3.00;99.90
11736;DHT22;5924;51.398;7.088;2022-12-18T11:23:53;3.00;99.90
11736;DHT22;5924;51.398;7.088;2022-12-18T11:26:19;3.10;99.90
11736;DHT22;5924;51.398;7.088;2022-12-18T11:29:16;3.20;99.90
11736;DHT22;5924;51.398;7.088;2022-12-18T11:31:42;3.20;99.90
11736;DHT22;5924;51.398;7.088;2022-12-18T11:34:22;3.30;99.90
11736;DHT22;5924;51.398;7.088;2022-12-18T11:36:52;3.30;99.90
11736;DHT22;5924;51.398;7.088;2022-12-18T11:39:36;3.30;99.90
11736;DHT22;5924;51.398;7.088;2022-12-18T11:42:20;3.40;99.90
11736;DHT22;5924;51.398;7.088;2022-12-18T11:51:37;3.60;99.90
11736;DHT22;5924;51.398;7.088;2022-12-18T11:54:14;3.60;99.90
11736;DHT22;5924;51.398;7.088;2022-12-18T11:57:03;3.60;99.90
11736;DHT22;5924;51.398;7.088;2022-12-18T12:02:40;3.60;99.90
11736;DHT22;5924;51.398;7.088;2022-12-18T12:08:05;2.50;99.90
11736;DHT22;5924;51.398;7.088;2022-12-18T12:13:16;3.90;99.90
11736;DHT22;5924;51.398;7.088;2022-12-18T12:27:34;3.80;99.90
11736;DHT22;5924;51.398;7.088;2022-12-18T12:29:47;3.80;99.90
11736;DHT22;5924;51.398;7.088;2022-12-18T12:32:25;3.80;99.90
11736;DHT22;5924;51.398;7.088;2022-12-18T12:40:26;3.80;99.90
11736;DHT22;5924;51.398;7.088;2022-12-18T12:42:58;3.80;99.90
11736;DHT22;5924;51.398;7.088;2022-12-18T12:45:50;3.80;99.90
11736;DHT22;5924;51.398;7.088;2022-12-18T12:50:46;3.90;99.90
11736;DHT22;5924;51.398;7.088;2022-12-18T12:53:25;3.60;99.90
11736;DHT22;5924;51.398;7.088;2022-12-18T12:55:52;3.60;99.90
11736;DHT22;5924;51.398;7.088;2022-12-18T12:58:38;3.60;99.90
11736;DHT22;5924;51.398;7.088;2022-12-18T13:06:52;3.50;99.90
11736;DHT22;5924;51.398;7.088;2022-12-18T13:09:19;3.40;99.90
11736;DHT22;5924;51.398;7.088;2022-12-18T13:11:45;3.30;99.90
11736;DHT22;5924;51.398;7.088;2022-12-18T13:14:36;3.20;99.90
11736;DHT22;5924;51.398;7.088;2022-12-18T13:17:24;3.10;99.90
11736;DHT22;5924;51.398;7.088;2022-12-18T13:20:13;3.00;99.90
11736;DHT22;5924;51.398;7.088;2022-12-18T13:22:48;2.90;99.90
11736;DHT22;5924;51.398;7.088;2022-12-18T13:25:36;2.90;99.90
11736;DHT22;5924;51.398;7.088;2022-12-18T13:49:49;2.50;99.90
11736;DHT22;5924;51.398;7.088;2022-12-18T13:51:48;2.50;99.90
11736;DHT22;5924;51.398;7.088;2022-12-18T13:54:37;2.40;99.90
11736;DHT22;5924;51.398;7.088;2022-12-18T13:57:11;2.40;99.90
11736;DHT22;5924;51.398;7.088;2022-12-18T13:59:50;5.00;99.90
11736;DHT22;5924;51.398;7.088;2022-12-18T14:02:19;2.30;99.90
11736;DHT22;5924;51.398;7.088;2022-12-18T14:04:47;2.30;99.90
11736;DHT22;5924;51.398;7.088;2022-12-18T14:07:25;2.20;99.90
11736;DHT22;5924;51.398;7.088;2022-12-18T14:09:59;2.10;99.90
11736;DHT22;5924;51.398;7.088;2022-12-18T14:12:28;2.10;99.90
11736;DHT22;5924;51.398;7.088;2022-12-18T14:17:42;2.00;99.90
11736;DHT22;5924;51.398;7.088;2022-12-18T14:20:14;2.00;99.90
11736;DHT22;5924;51.398;7.088;2022-12-18T14:22:45;2.00;99.90
11736;DHT22;5924;51.398;7.088;2022-12-18T14:25:25;1.90;99.90
11736;DHT22;5924;51.398;7.088;2022-12-18T14:28:00;1.80;99.90
11736;DHT22;5924;51.398;7.088;2022-12-18T14:30:30;1.80;99.90
11736;DHT22;5924;51.398;7.088;2022-12-18T14:33:17;1.80;99.90
11736;DHT22;5924;51.398;7.088;2022-12-18T14:38:33;1.70;99.90
11736;DHT22;5924;51.398;7.088;2022-12-18T14:41:06;2.50;99.90
11736;DHT22;5924;51.398;7.088;2022-12-18T14:43:36;1.70;99.90
11736;DHT22;5924;51.398;7.088;2022-12-18T14:46:04;1.70;99.90
11736;DHT22;5924;51.398;7.088;2022-12-18T14:48:35;1.60;99.90
11736;DHT22;5924;51.398;7.088;2022-12-18T14:51:49;1.60;99.90
11736;DHT22;5924;51.398;7.088;2022-12-18T14:54:01;1.60;99.90
11736;DHT22;5924;51.398;7.088;2022-12-18T14:56:29;1.60;99.90
11736;DHT22;5924;51.398;7.088;2022-12-18T15:01:33;1.40;99.90
11736;DHT22;5924;51.398;7.088;2022-12-18T15:04:01;1.40;99.90
11736;DHT22;5924;51.398;7.088;2022-12-18T15:08:59;1.30;99.90
11736;DHT22;5924;51.398;7.088;2022-12-18T15:11:33;1.30;99.90
11736;DHT22;5924;51.398;7.088;2022-12-18T15:14:00;1.30;99.90
11736;DHT22;5924;51.398;7.088;2022-12-18T15:16:53;1.30;99.90
11736;DHT22;5924;51.398;7.088;2022-12-18T15:19:21;1.20;99.90
11736;DHT22;5924;51.398;7.088;2022-12-18T15:21:47;1.20;99.90
11736;DHT22;5924;51.398;7.088;2022-12-18T15:24:26;1.20;99.90
11736;DHT22;5924;51.398;7.088;2022-12-18T15:26:53;1.20;99.90
11736;DHT22;5924;51.398;7.088;2022-12-18T15:29:23;1.20;99.90
11736;DHT22;5924;51.398;7.088;2022-12-18T15:32:02;1.10;99.90
11736;DHT22;5924;51.398;7.088;2022-12-18T15:34:28;1.10;99.90
11736;DHT22;5924;51.398;7.088;2022-12-18T15:36:54;1.10;99.90
11736;DHT22;5924;51.398;7.088;2022-12-18T15:39:20;1.10;99.90
11736;DHT22;5924;51.398;7.088;2022-12-18T15:41:46;1.10;99.90
11736;DHT22;5924;51.398;7.088;2022-12-18T15:44:30;1.30;99.90
11736;DHT22;5924;51.398;7.088;2022-12-18T15:46:56;1.30;99.90
11736;DHT22;5924;51.398;7.088;2022-12-18T15:49:22;1.00;99.90
11736;DHT22;5924;51.398;7.088;2022-12-18T15:51:52;1.00;99.90
11736;DHT22;5924;51.398;7.088;2022-12-18T15:54:19;1.00;99.90
11736;DHT22;5924;51.398;7.088;2022-12-18T15:57:10;1.00;99.90
11736;DHT22;5924;51.398;7.088;2022-12-18T15:59:48;0.90;99.90
11736;DHT22;5924;51.398;7.088;2022-12-18T16:02:16;0.90;99.90
11736;DHT22;5924;51.398;7.088;2022-12-18T16:04:42;0.90;99.90
11736;DHT22;5924;51.398;7.088;2022-12-18T16:07:09;0.90;99.90
11736;DHT22;5924;51.398;7.088;2022-12-18T16:09:35;0.90;99.90
11736;DHT22;5924;51.398;7.088;2022-12-18T16:12:01;2.00;99.90
11736;DHT22;5924;51.398;7.088;2022-12-18T16:14:29;0.90;99.90
11736;DHT22;5924;51.398;7.088;2022-12-18T16:16:57;0.90;99.90
11736;DHT22;5924;51.398;7.088;2022-12-18T16:19:24;1.00;99.90
11736;DHT22;5924;51.398;7.088;2022-12-18T16:21:52;0.90;99.90
11736;DHT22;5924;51.398;7.088;2022-12-18T16:24:20;0.90;99.90
11736;DHT22;5924;51.398;7.088;2022-12-18T16:26:47;0.90;99.90
11736;DHT22;5924;51.398;7.088;2022-12-18T16:29:13;0.90;99.90
11736;DHT22;5924;51.398;7.088;2022-12-18T16:31:39;0.90;99.90
11736;DHT22;5924;51.398;7.088;2022-12-18T16:34:23;0.90;99.90
11736;DHT22;5924;51.398;7.088;2022-12-18T16:36:52;0.90;99.90
11736;DHT22;5924;51.398;7.088;2022-12-18T16:39:19;1.00;99.90
11736;DHT22;5924;51.398;7.088;2022-12-18T16:41:45;1.00;99.90
11736;DHT22;5924;51.398;7.088;2022-12-18T16:44:11;0.90;99.90
11736;DHT22;5924;51.398;7.088;2022-12-18T16:46:37;0.90;99.90
11736;DHT22;5924;51.398;7.088;2022-12-18T16:49:03;0.90;99.90
11736;DHT22;5924;51.398;7.088;2022-12-18T16:51:32;0.90;99.90
11736;DHT22;5924;51.398;7.088;2022-12-18T16:53:58;0.90;99.90
11736;DHT22;5924;51.398;7.088;2022-12-18T16:56:24;0.90;99.90
11736;DHT22;5924;51.398;7.088;2022-12-18T16:58:53;0.90;99.90
11736;DHT22;5924;51.398;7.088;2022-12-18T17:01:20;0.90;99.90
11736;DHT22;5924;51.398;7.088;2022-12-18T17:03:53;0.90;99.90
11736;DHT22;5924;51.398;7.088;2022-12-18T17:06:21;0.80;99.90
11736;DHT22;5924;51.398;7.088;2022-12-18T17:08:47;0.80;99.90
11736;DHT22;5924;51.398;7.088;2022-12-18T17:11:13;0.80;99.90
11736;DHT22;5924;51.398;7.088;2022-12-18T17:13:39;0.80;99.90
11736;DHT22;5924;51.398;7.088;2022-12-18T17:16:06;0.80;99.90
11736;DHT22;5924;51.398;7.088;2022-12-18T17:18:33;0.70;99.90
11736;DHT22;5924;51.398;7.088;2022-12-18T17:21:03;0.70;99.90
11736;DHT22;5924;51.398;7.088;2022-12-18T17:23:30;0.70;99.90
11736;DHT22;5924;51.398;7.088;2022-12-18T17:25:57;0.70;99.90
11736;DHT22;5924;51.398;7.088;2022-12-18T17:28:24;0.70;99.90
11736;DHT22;5924;51.398;7.088;2022-12-18T17:30:51;0.70;99.90
11736;DHT22;5924;51.398;7.088;2022-12-18T17:33:17;0.70;99.90
11736;DHT22;5924;51.398;7.088;2022-12-18T17:35:43;0.80;99.90
11736;DHT22;5924;51.398;7.088;2022-12-18T17:38:08;0.80;99.90
11736;DHT22;5924;51.398;7.088;2022-12-18T17:40:34;0.70;99.90
11736;DHT22;5924;51.398;7.088;2022-12-18T17:43:00;0.70;99.90
11736;DHT22;5924;51.398;7.088;2022-12-18T17:45:26;0.70;99.90
11736;DHT22;5924;51.398;7.088;2022-12-18T17:47:51;0.70;99.90
11736;DHT22;5924;51.398;7.088;2022-12-18T17:50:17;0.70;99.90
11736;DHT22;5924;51.398;7.088;2022-12-18T17:52:43;0.70;99.90
11736;DHT22;5924;51.398;7.088;2022-12-18T17:55:09;0.70;99.90
11736;DHT22;5924;51.398;7.088;2022-12-18T17:57:34;0.70;99.90
11736;DHT22;5924;51.398;7.088;2022-12-18T18:00:01;0.60;99.90
11736;DHT22;5924;51.398;7.088;2022-12-18T18:02:27;0.60;99.90
11736;DHT22;5924;51.398;7.088;2022-12-18T18:04:53;0.60;99.90
11736;DHT22;5924;51.398;7.088;2022-12-18T18:07:18;0.60;99.90
11736;DHT22;5924;51.398;7.088;2022-12-18T18:09:44;0.60;99.90
11736;DHT22;5924;51.398;7.088;2022-12-18T18:12:11;0.60;99.90
11736;DHT22;5924;51.398;7.088;2022-12-18T18:14:55;0.60;99.90
11736;DHT22;5924;51.398;7.088;2022-12-18T18:17:20;0.60;99.90
11736;DHT22;5924;51.398;7.088;2022-12-18T18:19:46;0.50;99.90
11736;DHT22;5924;51.398;7.088;2022-12-18T18:22:12;0.50;99.90
11736;DHT22;5924;51.398;7.088;2022-12-18T18:24:37;0.50;99.90
11736;DHT22;5924;51.398;7.088;2022-12-18T18:27:03;0.50;99.90
11736;DHT22;5924;51.398;7.088;2022-12-18T18:29:29;-2.40;99.90